sensor_id;sensor_type;location;lat;lon;timestamp;P1;durP1;ratioP1;P2;durP2;ratioP2
55292;SDS011;41157;53.560;10.098;2023-02-28T00:00:40;7.80;;;3.83;;
55292;SDS011;41157;53.560;10.098;2023-02-28T00:03:08;8.93;;;3.90;;
55292;SDS011;41157;53.560;10.098;2023-02-28T00:05:35;5.97;;;3.90;;
55292;SDS011;41157;53.560;10.098;2023-02-28T00:08:02;7.33;;;3.93;;
55292;SDS011;41157;53.560;10.098;2023-02-28T00:10:29;7.60;;;4.00;;
55292;SDS011;41157;53.560;10.098;2023-02-28T00:12:59;10.03;;;3.60;;
55292;SDS011;41157;53.560;10.098;2023-02-28T00:15:28;7.83;;;3.83;;
55292;SDS011;41157;53.560;10.098;2023-02-28T00:17:55;6.77;;;3.63;;
55292;SDS011;41157;53.560;10.098;2023-02-28T00:20:22;9.03;;;4.27;;
55292;SDS011;41157;53.560;10.098;2023-02-28T00:22:49;7.40;;;3.57;;
55292;SDS011;41157;53.560;10.098;2023-02-28T00:25:17;6.00;;;3.43;;
55292;SDS011;41157;53.560;10.098;2023-02-28T00:27:44;9.40;;;3.57;;
55292;SDS011;41157;53.560;10.098;2023-02-28T00:30:13;6.97;;;3.30;;
55292;SDS011;41157;53.560;10.098;2023-02-28T00:32:41;4.67;;;3.20;;
55292;SDS011;41157;53.560;10.098;2023-02-28T00:35:09;8.07;;;3.60;;
55292;SDS011;41157;53.560;10.098;2023-02-28T00:37:36;5.70;;;3.33;;
55292;SDS011;41157;53.560;10.098;2023-02-28T00:40:04;9.27;;;3.70;;
55292;SDS011;41157;53.560;10.098;2023-02-28T00:42:31;6.53;;;3.80;;
55292;SDS011;41157;53.560;10.098;2023-02-28T00:44:58;8.53;;;3.50;;
55292;SDS011;41157;53.560;10.098;2023-02-28T00:47:26;5.80;;;3.40;;
55292;SDS011;41157;53.560;10.098;2023-02-28T00:49:54;7.60;;;3.50;;
55292;SDS011;41157;53.560;10.098;2023-02-28T00:52:21;9.17;;;3.20;;
55292;SDS011;41157;53.560;10.098;2023-02-28T00:54:48;4.93;;;3.20;;
55292;SDS011;41157;53.560;10.098;2023-02-28T00:57:15;7.70;;;4.03;;
55292;SDS011;41157;53.560;10.098;2023-02-28T00:59:42;7.50;;;3.60;;
55292;SDS011;41157;53.560;10.098;2023-02-28T01:02:09;5.33;;;3.20;;
55292;SDS011;41157;53.560;10.098;2023-02-28T01:04:36;6.90;;;3.07;;
55292;SDS011;41157;53.560;10.098;2023-02-28T01:07:04;6.00;;;3.20;;
55292;SDS011;41157;53.560;10.098;2023-02-28T01:09:31;4.70;;;2.90;;
55292;SDS011;41157;53.560;10.098;2023-02-28T01:11:58;6.47;;;3.30;;
55292;SDS011;41157;53.560;10.098;2023-02-28T01:14:25;5.87;;;3.30;;
55292;SDS011;41157;53.560;10.098;2023-02-28T01:16:52;5.73;;;3.30;;
55292;SDS011;41157;53.560;10.098;2023-02-28T01:19:19;6.37;;;3.27;;
55292;SDS011;41157;53.560;10.098;2023-02-28T01:21:46;6.00;;;3.37;;
55292;SDS011;41157;53.560;10.098;2023-02-28T01:24:14;6.13;;;3.63;;
55292;SDS011;41157;53.560;10.098;2023-02-28T01:26:41;5.60;;;3.30;;
55292;SDS011;41157;53.560;10.098;2023-02-28T01:29:08;6.73;;;3.10;;
55292;SDS011;41157;53.560;10.098;2023-02-28T01:31:36;5.77;;;3.53;;
55292;SDS011;41157;53.560;10.098;2023-02-28T01:34:03;4.27;;;3.17;;
55292;SDS011;41157;53.560;10.098;2023-02-28T01:36:30;10.53;;;3.77;;
55292;SDS011;41157;53.560;10.098;2023-02-28T01:38:57;8.07;;;3.50;;
55292;SDS011;41157;53.560;10.098;2023-02-28T01:41:26;6.10;;;3.50;;
55292;SDS011;41157;53.560;10.098;2023-02-28T01:43:57;6.27;;;3.57;;
55292;SDS011;41157;53.560;10.098;2023-02-28T01:46:28;6.90;;;3.77;;
55292;SDS011;41157;53.560;10.098;2023-02-28T01:48:56;7.27;;;3.33;;
55292;SDS011;41157;53.560;10.098;2023-02-28T01:51:26;7.63;;;4.10;;
55292;SDS011;41157;53.560;10.098;2023-02-28T01:53:55;8.10;;;4.10;;
55292;SDS011;41157;53.560;10.098;2023-02-28T01:56:25;9.90;;;3.87;;
55292;SDS011;41157;53.560;10.098;2023-02-28T01:58:54;10.73;;;4.00;;
55292;SDS011;41157;53.560;10.098;2023-02-28T02:01:21;6.87;;;3.70;;
55292;SDS011;41157;53.560;10.098;2023-02-28T02:03:49;6.87;;;4.13;;
55292;SDS011;41157;53.560;10.098;2023-02-28T02:06:20;9.37;;;4.13;;
55292;SDS011;41157;53.560;10.098;2023-02-28T02:08:48;8.03;;;4.13;;
55292;SDS011;41157;53.560;10.098;2023-02-28T02:11:16;7.03;;;4.00;;
55292;SDS011;41157;53.560;10.098;2023-02-28T02:13:50;6.30;;;3.73;;
55292;SDS011;41157;53.560;10.098;2023-02-28T02:16:23;7.57;;;3.80;;
55292;SDS011;41157;53.560;10.098;2023-02-28T02:18:54;7.03;;;4.00;;
55292;SDS011;41157;53.560;10.098;2023-02-28T02:21:39;9.27;;;4.00;;
55292;SDS011;41157;53.560;10.098;2023-02-28T02:26:58;11.63;;;4.53;;
55292;SDS011;41157;53.560;10.098;2023-02-28T02:29:38;10.17;;;3.73;;
55292;SDS011;41157;53.560;10.098;2023-02-28T02:35:01;6.13;;;4.10;;
55292;SDS011;41157;53.560;10.098;2023-02-28T02:37:33;6.43;;;3.90;;
55292;SDS011;41157;53.560;10.098;2023-02-28T02:40:03;6.47;;;4.13;;
55292;SDS011;41157;53.560;10.098;2023-02-28T02:42:35;9.47;;;4.30;;
55292;SDS011;41157;53.560;10.098;2023-02-28T02:45:04;5.80;;;3.97;;
55292;SDS011;41157;53.560;10.098;2023-02-28T02:47:33;10.13;;;4.30;;
55292;SDS011;41157;53.560;10.098;2023-02-28T02:50:04;9.67;;;4.77;;
55292;SDS011;41157;53.560;10.098;2023-02-28T02:52:33;7.10;;;4.40;;
55292;SDS011;41157;53.560;10.098;2023-02-28T02:55:01;5.97;;;3.97;;
55292;SDS011;41157;53.560;10.098;2023-02-28T02:57:30;8.07;;;4.33;;
55292;SDS011;41157;53.560;10.098;2023-02-28T02:59:58;12.60;;;4.50;;
55292;SDS011;41157;53.560;10.098;2023-02-28T03:02:26;7.43;;;3.93;;
55292;SDS011;41157;53.560;10.098;2023-02-28T03:04:59;7.73;;;4.20;;
55292;SDS011;41157;53.560;10.098;2023-02-28T03:07:29;10.23;;;4.40;;
55292;SDS011;41157;53.560;10.098;2023-02-28T03:09:57;7.03;;;4.03;;
55292;SDS011;41157;53.560;10.098;2023-02-28T03:12:27;10.20;;;4.13;;
55292;SDS011;41157;53.560;10.098;2023-02-28T03:14:56;8.17;;;4.27;;
55292;SDS011;41157;53.560;10.098;2023-02-28T03:20:14;8.00;;;4.07;;
55292;SDS011;41157;53.560;10.098;2023-02-28T03:22:47;12.60;;;4.37;;
55292;SDS011;41157;53.560;10.098;2023-02-28T03:25:19;10.90;;;4.80;;
55292;SDS011;41157;53.560;10.098;2023-02-28T03:27:49;10.80;;;4.70;;
55292;SDS011;41157;53.560;10.098;2023-02-28T03:30:22;6.90;;;4.30;;
55292;SDS011;41157;53.560;10.098;2023-02-28T03:32:53;8.37;;;4.23;;
55292;SDS011;41157;53.560;10.098;2023-02-28T03:35:22;10.90;;;3.90;;
55292;SDS011;41157;53.560;10.098;2023-02-28T03:37:51;8.73;;;3.80;;
55292;SDS011;41157;53.560;10.098;2023-02-28T03:40:20;10.70;;;4.63;;
55292;SDS011;41157;53.560;10.098;2023-02-28T03:42:49;10.30;;;4.50;;
55292;SDS011;41157;53.560;10.098;2023-02-28T03:45:18;11.03;;;4.80;;
55292;SDS011;41157;53.560;10.098;2023-02-28T03:47:47;9.70;;;5.17;;
55292;SDS011;41157;53.560;10.098;2023-02-28T03:50:16;9.33;;;4.20;;
55292;SDS011;41157;53.560;10.098;2023-02-28T03:52:44;9.67;;;4.67;;
55292;SDS011;41157;53.560;10.098;2023-02-28T03:55:15;10.27;;;4.23;;
55292;SDS011;41157;53.560;10.098;2023-02-28T03:57:44;10.37;;;4.60;;
55292;SDS011;41157;53.560;10.098;2023-02-28T04:00:14;8.33;;;4.33;;
55292;SDS011;41157;53.560;10.098;2023-02-28T04:02:42;7.10;;;4.23;;
55292;SDS011;41157;53.560;10.098;2023-02-28T04:05:09;8.53;;;4.30;;
55292;SDS011;41157;53.560;10.098;2023-02-28T04:07:36;10.73;;;4.70;;
55292;SDS011;41157;53.560;10.098;2023-02-28T04:10:04;7.37;;;4.00;;
55292;SDS011;41157;53.560;10.098;2023-02-28T04:12:32;6.93;;;4.43;;
55292;SDS011;41157;53.560;10.098;2023-02-28T04:14:59;8.97;;;4.43;;
55292;SDS011;41157;53.560;10.098;2023-02-28T04:17:26;9.80;;;4.43;;
55292;SDS011;41157;53.560;10.098;2023-02-28T04:19:53;7.20;;;4.00;;
55292;SDS011;41157;53.560;10.098;2023-02-28T04:22:22;10.60;;;4.77;;
55292;SDS011;41157;53.560;10.098;2023-02-28T04:24:51;7.30;;;4.27;;
55292;SDS011;41157;53.560;10.098;2023-02-28T04:27:18;9.33;;;4.37;;
55292;SDS011;41157;53.560;10.098;2023-02-28T04:29:47;7.03;;;3.93;;
55292;SDS011;41157;53.560;10.098;2023-02-28T04:32:14;8.93;;;4.33;;
55292;SDS011;41157;53.560;10.098;2023-02-28T04:34:41;6.60;;;4.00;;
55292;SDS011;41157;53.560;10.098;2023-02-28T04:37:08;10.50;;;4.50;;
55292;SDS011;41157;53.560;10.098;2023-02-28T04:39:35;6.90;;;3.90;;
55292;SDS011;41157;53.560;10.098;2023-02-28T04:42:02;10.83;;;4.60;;
55292;SDS011;41157;53.560;10.098;2023-02-28T04:44:29;7.80;;;4.37;;
55292;SDS011;41157;53.560;10.098;2023-02-28T04:46:58;7.13;;;4.20;;
55292;SDS011;41157;53.560;10.098;2023-02-28T04:49:25;8.90;;;4.23;;
55292;SDS011;41157;53.560;10.098;2023-02-28T04:51:52;12.20;;;4.47;;
55292;SDS011;41157;53.560;10.098;2023-02-28T04:54:20;7.67;;;4.17;;
55292;SDS011;41157;53.560;10.098;2023-02-28T04:56:47;9.83;;;4.60;;
55292;SDS011;41157;53.560;10.098;2023-02-28T04:59:15;8.63;;;4.40;;
55292;SDS011;41157;53.560;10.098;2023-02-28T05:01:45;6.07;;;4.10;;
55292;SDS011;41157;53.560;10.098;2023-02-28T05:04:14;8.83;;;4.30;;
55292;SDS011;41157;53.560;10.098;2023-02-28T05:06:41;8.30;;;4.33;;
55292;SDS011;41157;53.560;10.098;2023-02-28T05:09:09;7.57;;;4.63;;
55292;SDS011;41157;53.560;10.098;2023-02-28T05:11:37;7.67;;;4.37;;
55292;SDS011;41157;53.560;10.098;2023-02-28T05:14:05;8.37;;;4.90;;
55292;SDS011;41157;53.560;10.098;2023-02-28T05:16:32;11.03;;;5.20;;
55292;SDS011;41157;53.560;10.098;2023-02-28T05:18:59;13.67;;;4.70;;
55292;SDS011;41157;53.560;10.098;2023-02-28T05:21:28;7.23;;;4.60;;
55292;SDS011;41157;53.560;10.098;2023-02-28T05:23:57;9.13;;;4.63;;
55292;SDS011;41157;53.560;10.098;2023-02-28T05:26:25;7.40;;;4.47;;
55292;SDS011;41157;53.560;10.098;2023-02-28T05:28:52;10.87;;;4.97;;
55292;SDS011;41157;53.560;10.098;2023-02-28T05:31:19;8.33;;;4.83;;
55292;SDS011;41157;53.560;10.098;2023-02-28T05:33:46;10.63;;;5.07;;
55292;SDS011;41157;53.560;10.098;2023-02-28T05:36:14;10.47;;;5.23;;
55292;SDS011;41157;53.560;10.098;2023-02-28T05:38:42;8.47;;;4.77;;
55292;SDS011;41157;53.560;10.098;2023-02-28T05:41:09;10.37;;;5.10;;
55292;SDS011;41157;53.560;10.098;2023-02-28T05:43:36;12.63;;;5.30;;
55292;SDS011;41157;53.560;10.098;2023-02-28T05:46:04;10.90;;;4.90;;
55292;SDS011;41157;53.560;10.098;2023-02-28T05:48:31;12.60;;;5.10;;
55292;SDS011;41157;53.560;10.098;2023-02-28T05:50:59;10.50;;;4.73;;
55292;SDS011;41157;53.560;10.098;2023-02-28T05:53:26;13.73;;;5.63;;
55292;SDS011;41157;53.560;10.098;2023-02-28T05:55:54;10.27;;;4.73;;
55292;SDS011;41157;53.560;10.098;2023-02-28T05:58:21;10.03;;;4.97;;
55292;SDS011;41157;53.560;10.098;2023-02-28T06:00:50;11.33;;;5.23;;
55292;SDS011;41157;53.560;10.098;2023-02-28T06:03:17;14.83;;;5.20;;
55292;SDS011;41157;53.560;10.098;2023-02-28T06:05:44;12.90;;;5.87;;
55292;SDS011;41157;53.560;10.098;2023-02-28T06:08:11;11.30;;;5.17;;
55292;SDS011;41157;53.560;10.098;2023-02-28T06:10:38;10.60;;;4.57;;
55292;SDS011;41157;53.560;10.098;2023-02-28T06:13:06;11.00;;;5.23;;
55292;SDS011;41157;53.560;10.098;2023-02-28T06:15:33;14.00;;;5.17;;
55292;SDS011;41157;53.560;10.098;2023-02-28T06:18:00;9.07;;;5.50;;
55292;SDS011;41157;53.560;10.098;2023-02-28T06:20:27;11.37;;;5.60;;
55292;SDS011;41157;53.560;10.098;2023-02-28T06:22:55;9.30;;;5.53;;
55292;SDS011;41157;53.560;10.098;2023-02-28T06:25:23;15.67;;;6.37;;
55292;SDS011;41157;53.560;10.098;2023-02-28T06:27:50;11.53;;;5.97;;
55292;SDS011;41157;53.560;10.098;2023-02-28T06:30:19;12.07;;;5.47;;
55292;SDS011;41157;53.560;10.098;2023-02-28T06:32:48;13.47;;;5.97;;
55292;SDS011;41157;53.560;10.098;2023-02-28T06:35:15;12.20;;;6.03;;
55292;SDS011;41157;53.560;10.098;2023-02-28T06:37:42;10.93;;;5.90;;
55292;SDS011;41157;53.560;10.098;2023-02-28T06:40:10;13.80;;;6.43;;
55292;SDS011;41157;53.560;10.098;2023-02-28T06:42:38;10.23;;;5.23;;
55292;SDS011;41157;53.560;10.098;2023-02-28T06:45:05;10.77;;;6.00;;
55292;SDS011;41157;53.560;10.098;2023-02-28T06:47:35;10.37;;;5.93;;
55292;SDS011;41157;53.560;10.098;2023-02-28T06:50:02;8.30;;;4.90;;
55292;SDS011;41157;53.560;10.098;2023-02-28T06:52:29;12.77;;;5.57;;
55292;SDS011;41157;53.560;10.098;2023-02-28T06:54:56;9.37;;;5.30;;
55292;SDS011;41157;53.560;10.098;2023-02-28T06:57:26;7.97;;;5.03;;
55292;SDS011;41157;53.560;10.098;2023-02-28T06:59:55;13.80;;;5.30;;
55292;SDS011;41157;53.560;10.098;2023-02-28T07:02:22;13.67;;;6.03;;
55292;SDS011;41157;53.560;10.098;2023-02-28T07:04:51;12.43;;;6.37;;
55292;SDS011;41157;53.560;10.098;2023-02-28T07:07:18;20.47;;;6.50;;
55292;SDS011;41157;53.560;10.098;2023-02-28T07:09:45;11.60;;;5.70;;
55292;SDS011;41157;53.560;10.098;2023-02-28T07:12:12;11.10;;;5.60;;
55292;SDS011;41157;53.560;10.098;2023-02-28T07:14:39;12.50;;;5.37;;
55292;SDS011;41157;53.560;10.098;2023-02-28T07:17:06;15.20;;;5.20;;
55292;SDS011;41157;53.560;10.098;2023-02-28T07:19:33;13.03;;;5.57;;
55292;SDS011;41157;53.560;10.098;2023-02-28T07:22:02;8.60;;;5.00;;
55292;SDS011;41157;53.560;10.098;2023-02-28T07:24:29;10.57;;;5.70;;
55292;SDS011;41157;53.560;10.098;2023-02-28T07:26:56;12.63;;;4.93;;
55292;SDS011;41157;53.560;10.098;2023-02-28T07:29:24;9.23;;;4.80;;
55292;SDS011;41157;53.560;10.098;2023-02-28T07:31:51;8.03;;;4.60;;
55292;SDS011;41157;53.560;10.098;2023-02-28T07:34:18;10.77;;;4.43;;
55292;SDS011;41157;53.560;10.098;2023-02-28T07:36:45;9.43;;;4.43;;
55292;SDS011;41157;53.560;10.098;2023-02-28T07:39:14;7.33;;;4.50;;
55292;SDS011;41157;53.560;10.098;2023-02-28T07:41:41;7.17;;;4.10;;
55292;SDS011;41157;53.560;10.098;2023-02-28T07:44:09;15.37;;;5.10;;
55292;SDS011;41157;53.560;10.098;2023-02-28T07:46:36;8.70;;;4.33;;
55292;SDS011;41157;53.560;10.098;2023-02-28T07:49:03;9.13;;;5.10;;
55292;SDS011;41157;53.560;10.098;2023-02-28T07:51:30;12.03;;;4.43;;
55292;SDS011;41157;53.560;10.098;2023-02-28T07:53:57;8.57;;;4.73;;
55292;SDS011;41157;53.560;10.098;2023-02-28T07:56:26;9.57;;;4.50;;
55292;SDS011;41157;53.560;10.098;2023-02-28T07:58:53;16.03;;;4.30;;
55292;SDS011;41157;53.560;10.098;2023-02-28T08:01:20;7.73;;;4.33;;
55292;SDS011;41157;53.560;10.098;2023-02-28T08:03:47;10.53;;;4.23;;
55292;SDS011;41157;53.560;10.098;2023-02-28T08:06:18;12.00;;;4.67;;
55292;SDS011;41157;53.560;10.098;2023-02-28T08:08:45;11.37;;;4.63;;
55292;SDS011;41157;53.560;10.098;2023-02-28T08:11:12;13.40;;;5.17;;
55292;SDS011;41157;53.560;10.098;2023-02-28T08:13:40;7.47;;;4.27;;
55292;SDS011;41157;53.560;10.098;2023-02-28T08:16:09;12.43;;;4.27;;
55292;SDS011;41157;53.560;10.098;2023-02-28T08:18:36;9.27;;;4.27;;
55292;SDS011;41157;53.560;10.098;2023-02-28T08:21:07;11.63;;;4.63;;
55292;SDS011;41157;53.560;10.098;2023-02-28T08:23:34;10.30;;;4.63;;
55292;SDS011;41157;53.560;10.098;2023-02-28T08:26:01;8.67;;;5.00;;
55292;SDS011;41157;53.560;10.098;2023-02-28T08:28:29;9.30;;;4.40;;
55292;SDS011;41157;53.560;10.098;2023-02-28T08:30:57;12.57;;;4.87;;
55292;SDS011;41157;53.560;10.098;2023-02-28T08:33:25;6.77;;;4.53;;
55292;SDS011;41157;53.560;10.098;2023-02-28T08:35:52;10.37;;;4.63;;
55292;SDS011;41157;53.560;10.098;2023-02-28T08:38:20;10.50;;;4.50;;
55292;SDS011;41157;53.560;10.098;2023-02-28T08:40:47;10.07;;;4.47;;
55292;SDS011;41157;53.560;10.098;2023-02-28T08:43:14;8.27;;;4.73;;
55292;SDS011;41157;53.560;10.098;2023-02-28T08:45:42;16.77;;;4.50;;
55292;SDS011;41157;53.560;10.098;2023-02-28T08:48:10;12.03;;;4.67;;
55292;SDS011;41157;53.560;10.098;2023-02-28T08:50:38;8.47;;;4.00;;
55292;SDS011;41157;53.560;10.098;2023-02-28T08:53:05;8.73;;;4.60;;
55292;SDS011;41157;53.560;10.098;2023-02-28T08:55:32;8.50;;;3.67;;
55292;SDS011;41157;53.560;10.098;2023-02-28T08:57:59;11.33;;;4.20;;
55292;SDS011;41157;53.560;10.098;2023-02-28T09:00:27;5.93;;;3.80;;
55292;SDS011;41157;53.560;10.098;2023-02-28T09:02:54;12.40;;;3.60;;
55292;SDS011;41157;53.560;10.098;2023-02-28T09:05:22;7.97;;;4.20;;
55292;SDS011;41157;53.560;10.098;2023-02-28T09:07:49;12.50;;;4.37;;
55292;SDS011;41157;53.560;10.098;2023-02-28T09:10:16;12.93;;;4.00;;
55292;SDS011;41157;53.560;10.098;2023-02-28T09:12:43;8.10;;;3.50;;
55292;SDS011;41157;53.560;10.098;2023-02-28T09:15:12;10.23;;;3.75;;
55292;SDS011;41157;53.560;10.098;2023-02-28T09:17:39;6.85;;;3.67;;
55292;SDS011;41157;53.560;10.098;2023-02-28T09:20:06;7.72;;;3.90;;
55292;SDS011;41157;53.560;10.098;2023-02-28T09:22:35;7.15;;;3.42;;
55292;SDS011;41157;53.560;10.098;2023-02-28T09:25:02;7.75;;;3.30;;
55292;SDS011;41157;53.560;10.098;2023-02-28T09:27:29;5.63;;;3.20;;
55292;SDS011;41157;53.560;10.098;2023-02-28T09:29:56;8.68;;;3.13;;
55292;SDS011;41157;53.560;10.098;2023-02-28T09:32:23;8.88;;;3.38;;
55292;SDS011;41157;53.560;10.098;2023-02-28T09:34:50;8.43;;;3.03;;
55292;SDS011;41157;53.560;10.098;2023-02-28T09:37:17;7.15;;;3.50;;
55292;SDS011;41157;53.560;10.098;2023-02-28T09:39:46;7.85;;;2.70;;
55292;SDS011;41157;53.560;10.098;2023-02-28T09:42:17;5.38;;;2.60;;
55292;SDS011;41157;53.560;10.098;2023-02-28T09:44:45;4.55;;;2.40;;
55292;SDS011;41157;53.560;10.098;2023-02-28T09:47:14;3.60;;;2.42;;
55292;SDS011;41157;53.560;10.098;2023-02-28T09:49:45;4.22;;;2.67;;
55292;SDS011;41157;53.560;10.098;2023-02-28T09:52:14;2.83;;;2.20;;
55292;SDS011;41157;53.560;10.098;2023-02-28T09:54:42;2.38;;;2.00;;
55292;SDS011;41157;53.560;10.098;2023-02-28T09:57:15;6.53;;;2.50;;
55292;SDS011;41157;53.560;10.098;2023-02-28T09:59:48;4.47;;;1.80;;
55292;SDS011;41157;53.560;10.098;2023-02-28T10:02:19;3.50;;;1.50;;
55292;SDS011;41157;53.560;10.098;2023-02-28T10:04:49;4.18;;;2.20;;
55292;SDS011;41157;53.560;10.098;2023-02-28T10:07:27;3.03;;;1.92;;
55292;SDS011;41157;53.560;10.098;2023-02-28T10:09:59;5.13;;;2.25;;
55292;SDS011;41157;53.560;10.098;2023-02-28T10:12:29;2.92;;;1.75;;
55292;SDS011;41157;53.560;10.098;2023-02-28T10:14:57;2.53;;;1.65;;
55292;SDS011;41157;53.560;10.098;2023-02-28T10:17:28;1.63;;;1.52;;
55292;SDS011;41157;53.560;10.098;2023-02-28T10:20:00;3.63;;;1.85;;
55292;SDS011;41157;53.560;10.098;2023-02-28T10:22:34;4.80;;;1.83;;
55292;SDS011;41157;53.560;10.098;2023-02-28T10:25:05;5.13;;;2.08;;
55292;SDS011;41157;53.560;10.098;2023-02-28T10:27:43;2.63;;;1.80;;
55292;SDS011;41157;53.560;10.098;2023-02-28T10:30:10;2.20;;;1.83;;
55292;SDS011;41157;53.560;10.098;2023-02-28T10:32:38;3.90;;;2.05;;
55292;SDS011;41157;53.560;10.098;2023-02-28T10:35:09;2.60;;;1.80;;
55292;SDS011;41157;53.560;10.098;2023-02-28T10:37:37;2.70;;;2.05;;
55292;SDS011;41157;53.560;10.098;2023-02-28T10:40:04;2.90;;;2.03;;
55292;SDS011;41157;53.560;10.098;2023-02-28T10:42:33;4.72;;;2.00;;
55292;SDS011;41157;53.560;10.098;2023-02-28T10:45:06;1.88;;;1.77;;
55292;SDS011;41157;53.560;10.098;2023-02-28T10:47:33;6.50;;;2.30;;
55292;SDS011;41157;53.560;10.098;2023-02-28T10:50:01;2.47;;;1.85;;
55292;SDS011;41157;53.560;10.098;2023-02-28T10:52:36;5.05;;;2.10;;
55292;SDS011;41157;53.560;10.098;2023-02-28T10:55:19;4.15;;;1.85;;
55292;SDS011;41157;53.560;10.098;2023-02-28T10:57:47;5.45;;;2.00;;
55292;SDS011;41157;53.560;10.098;2023-02-28T11:00:17;2.83;;;1.90;;
55292;SDS011;41157;53.560;10.098;2023-02-28T11:02:44;8.55;;;2.22;;
55292;SDS011;41157;53.560;10.098;2023-02-28T11:05:25;4.45;;;1.88;;
55292;SDS011;41157;53.560;10.098;2023-02-28T11:07:52;11.93;;;1.80;;
55292;SDS011;41157;53.560;10.098;2023-02-28T11:10:20;3.95;;;2.30;;
55292;SDS011;41157;53.560;10.098;2023-02-28T11:12:50;4.15;;;2.20;;
55292;SDS011;41157;53.560;10.098;2023-02-28T11:15:23;3.15;;;2.10;;
55292;SDS011;41157;53.560;10.098;2023-02-28T11:17:54;3.08;;;1.85;;
55292;SDS011;41157;53.560;10.098;2023-02-28T11:20:22;4.38;;;1.80;;
55292;SDS011;41157;53.560;10.098;2023-02-28T11:22:50;4.13;;;2.10;;
55292;SDS011;41157;53.560;10.098;2023-02-28T11:25:19;5.65;;;2.08;;
55292;SDS011;41157;53.560;10.098;2023-02-28T11:27:48;6.93;;;2.15;;
55292;SDS011;41157;53.560;10.098;2023-02-28T11:30:28;5.13;;;2.20;;
55292;SDS011;41157;53.560;10.098;2023-02-28T11:32:56;4.15;;;2.10;;
55292;SDS011;41157;53.560;10.098;2023-02-28T11:35:24;4.65;;;2.10;;
55292;SDS011;41157;53.560;10.098;2023-02-28T11:37:52;4.53;;;2.10;;
55292;SDS011;41157;53.560;10.098;2023-02-28T11:40:21;4.95;;;2.13;;
55292;SDS011;41157;53.560;10.098;2023-02-28T11:42:53;4.43;;;2.05;;
55292;SDS011;41157;53.560;10.098;2023-02-28T11:45:35;3.35;;;2.10;;
55292;SDS011;41157;53.560;10.098;2023-02-28T11:48:11;3.30;;;2.00;;
55292;SDS011;41157;53.560;10.098;2023-02-28T11:50:42;3.95;;;1.90;;
55292;SDS011;41157;53.560;10.098;2023-02-28T11:53:14;2.25;;;1.90;;
55292;SDS011;41157;53.560;10.098;2023-02-28T11:55:44;4.50;;;1.95;;
55292;SDS011;41157;53.560;10.098;2023-02-28T11:58:19;7.63;;;2.10;;
55292;SDS011;41157;53.560;10.098;2023-02-28T12:01:07;2.67;;;2.00;;
55292;SDS011;41157;53.560;10.098;2023-02-28T12:03:42;2.70;;;1.88;;
55292;SDS011;41157;53.560;10.098;2023-02-28T12:06:13;3.60;;;2.15;;
55292;SDS011;41157;53.560;10.098;2023-02-28T12:08:44;3.13;;;1.70;;
55292;SDS011;41157;53.560;10.098;2023-02-28T12:11:15;2.92;;;2.05;;
55292;SDS011;41157;53.560;10.098;2023-02-28T12:13:47;2.92;;;2.05;;
55292;SDS011;41157;53.560;10.098;2023-02-28T12:16:27;3.20;;;1.70;;
55292;SDS011;41157;53.560;10.098;2023-02-28T12:19:06;4.65;;;2.08;;
55292;SDS011;41157;53.560;10.098;2023-02-28T12:21:38;3.58;;;2.10;;
55292;SDS011;41157;53.560;10.098;2023-02-28T12:24:16;1.90;;;1.77;;
55292;SDS011;41157;53.560;10.098;2023-02-28T12:26:47;3.75;;;1.90;;
55292;SDS011;41157;53.560;10.098;2023-02-28T12:29:16;3.97;;;2.03;;
55292;SDS011;41157;53.560;10.098;2023-02-28T12:31:45;4.85;;;2.00;;
55292;SDS011;41157;53.560;10.098;2023-02-28T12:34:18;4.47;;;2.10;;
55292;SDS011;41157;53.560;10.098;2023-02-28T12:36:46;3.70;;;2.10;;
55292;SDS011;41157;53.560;10.098;2023-02-28T12:39:15;3.03;;;1.80;;
55292;SDS011;41157;53.560;10.098;2023-02-28T12:41:45;1.90;;;1.70;;
55292;SDS011;41157;53.560;10.098;2023-02-28T12:44:14;2.78;;;1.85;;
55292;SDS011;41157;53.560;10.098;2023-02-28T12:46:43;5.03;;;1.77;;
55292;SDS011;41157;53.560;10.098;2023-02-28T12:49:13;10.77;;;2.25;;
55292;SDS011;41157;53.560;10.098;2023-02-28T12:51:42;6.65;;;2.13;;
55292;SDS011;41157;53.560;10.098;2023-02-28T12:54:12;4.03;;;1.98;;
55292;SDS011;41157;53.560;10.098;2023-02-28T12:56:44;2.60;;;1.75;;
55292;SDS011;41157;53.560;10.098;2023-02-28T12:59:15;4.63;;;2.05;;
55292;SDS011;41157;53.560;10.098;2023-02-28T13:01:48;3.42;;;1.80;;
55292;SDS011;41157;53.560;10.098;2023-02-28T13:04:27;5.50;;;1.88;;
55292;SDS011;41157;53.560;10.098;2023-02-28T13:07:04;3.40;;;1.70;;
55292;SDS011;41157;53.560;10.098;2023-02-28T13:09:32;6.43;;;1.65;;
55292;SDS011;41157;53.560;10.098;2023-02-28T13:11:59;2.88;;;1.70;;
55292;SDS011;41157;53.560;10.098;2023-02-28T13:14:28;4.75;;;2.00;;
55292;SDS011;41157;53.560;10.098;2023-02-28T13:16:57;1.77;;;1.58;;
55292;SDS011;41157;53.560;10.098;2023-02-28T13:19:25;6.18;;;1.73;;
55292;SDS011;41157;53.560;10.098;2023-02-28T13:21:53;4.90;;;2.13;;
55292;SDS011;41157;53.560;10.098;2023-02-28T13:24:39;6.43;;;1.60;;
55292;SDS011;41157;53.560;10.098;2023-02-28T13:27:10;5.15;;;1.77;;
55292;SDS011;41157;53.560;10.098;2023-02-28T13:29:38;2.90;;;1.60;;
55292;SDS011;41157;53.560;10.098;2023-02-28T13:38:21;4.67;;;1.80;;
55292;SDS011;41157;53.560;10.098;2023-02-28T13:40:50;3.37;;;1.70;;
55292;SDS011;41157;53.560;10.098;2023-02-28T13:43:17;6.80;;;2.07;;
55292;SDS011;41157;53.560;10.098;2023-02-28T13:46:05;4.57;;;1.80;;
55292;SDS011;41157;53.560;10.098;2023-02-28T13:48:33;2.93;;;1.60;;
55292;SDS011;41157;53.560;10.098;2023-02-28T13:51:00;2.20;;;1.67;;
55292;SDS011;41157;53.560;10.098;2023-02-28T13:53:56;2.60;;;1.90;;
55292;SDS011;41157;53.560;10.098;2023-02-28T13:56:33;1.80;;;1.60;;
55292;SDS011;41157;53.560;10.098;2023-02-28T13:59:03;3.70;;;1.70;;
55292;SDS011;41157;53.560;10.098;2023-02-28T14:01:36;2.97;;;1.73;;
55292;SDS011;41157;53.560;10.098;2023-02-28T14:04:17;4.23;;;2.07;;
55292;SDS011;41157;53.560;10.098;2023-02-28T14:06:51;3.73;;;1.57;;
55292;SDS011;41157;53.560;10.098;2023-02-28T14:09:21;2.20;;;1.70;;
55292;SDS011;41157;53.560;10.098;2023-02-28T14:11:51;2.70;;;1.63;;
55292;SDS011;41157;53.560;10.098;2023-02-28T14:17:00;7.50;;;1.90;;
55292;SDS011;41157;53.560;10.098;2023-02-28T14:19:28;2.07;;;1.60;;
55292;SDS011;41157;53.560;10.098;2023-02-28T14:22:00;4.33;;;1.80;;
55292;SDS011;41157;53.560;10.098;2023-02-28T14:24:42;3.33;;;1.90;;
55292;SDS011;41157;53.560;10.098;2023-02-28T14:27:26;2.53;;;1.50;;
55292;SDS011;41157;53.560;10.098;2023-02-28T14:32:41;2.53;;;1.73;;
55292;SDS011;41157;53.560;10.098;2023-02-28T14:35:13;2.67;;;2.00;;
55292;SDS011;41157;53.560;10.098;2023-02-28T14:37:43;3.67;;;1.80;;
55292;SDS011;41157;53.560;10.098;2023-02-28T14:40:12;3.90;;;1.70;;
55292;SDS011;41157;53.560;10.098;2023-02-28T14:42:45;2.50;;;1.70;;
55292;SDS011;41157;53.560;10.098;2023-02-28T14:45:17;4.00;;;2.03;;
55292;SDS011;41157;53.560;10.098;2023-02-28T14:47:45;3.67;;;1.77;;
55292;SDS011;41157;53.560;10.098;2023-02-28T14:50:17;5.97;;;2.50;;
55292;SDS011;41157;53.560;10.098;2023-02-28T14:52:45;3.70;;;2.50;;
55292;SDS011;41157;53.560;10.098;2023-02-28T14:55:12;3.07;;;1.90;;
55292;SDS011;41157;53.560;10.098;2023-02-28T14:57:41;2.77;;;1.80;;
55292;SDS011;41157;53.560;10.098;2023-02-28T15:00:13;2.03;;;1.80;;
55292;SDS011;41157;53.560;10.098;2023-02-28T15:02:41;9.33;;;2.10;;